Time;durP1;ratioP1;P1;durP2;ratioP2;P2;SDS_P1;SDS_P2;PMS_P1;PMS_P2;Temp;Humidity;BMP_temperature;BMP_pressure;BME280_temperature;BME280_humidity;BME280_pressure;Samples;Min_cycle;Max_cycle;Signal;HPM_P1;HPM_P2
2023/01/22 00:02:01;;;;;;;0.23;0.23;;;0.80;99.90;;;;;;5064936;28;20539;-79
2023/01/22 00:04:26;;;;;;;0.10;0.10;;;0.80;99.90;;;;;;5061716;28;20700;-79
2023/01/22 00:06:52;;;;;;;1.37;1.27;;;0.80;99.90;;;;;;5062517;28;20222;-79
2023/01/22 00:09:17;;;;;;;0.10;0.10;;;0.80;99.90;;;;;;5061813;28;20727;-79
2023/01/22 00:11:43;;;;;;;0.10;0.10;;;0.70;99.90;;;;;;5062167;28;20197;-79
2023/01/22 00:14:08;;;;;;;0.10;0.10;;;0.80;99.90;;;;;;5061648;28;20173;-78
2023/01/22 00:16:34;;;;;;;0.10;0.10;;;0.90;99.90;;;;;;5063062;28;20182;-79
2023/01/22 00:18:59;;;;;;;0.10;0.10;;;0.80;99.90;;;;;;5063362;28;20201;-79
2023/01/22 00:21:26;;;;;;;0.10;0.10;;;0.80;99.90;;;;;;5062243;28;20771;-79
2023/01/22 00:23:52;;;;;;;0.10;0.10;;;0.80;99.90;;;;;;5061399;28;20211;-82
2023/01/22 00:26:19;;;;;;;0.10;0.10;;;0.80;99.90;;;;;;5059041;28;21129;-81
2023/01/22 00:28:45;;;;;;;0.00;0.00;;;0.80;99.90;;;;;;5060038;28;20204;-81
2023/01/22 00:31:12;;;;;;;0.03;0.03;;;0.80;99.90;;;;;;5060374;28;20216;-80
2023/01/22 00:33:38;;;;;;;0.10;0.10;;;0.80;99.90;;;;;;5060738;28;20173;-81
2023/01/22 00:36:10;;;;;;;0.10;0.10;;;0.90;99.90;;;;;;5060534;28;20177;-79
2023/01/22 00:38:36;;;;;;;0.10;0.10;;;0.90;99.90;;;;;;5058166;28;20205;-82
2023/01/22 00:41:02;;;;;;;0.10;0.10;;;0.90;99.90;;;;;;5060069;28;20310;-81
2023/01/22 00:43:29;;;;;;;0.10;0.10;;;0.90;99.90;;;;;;5061805;28;20267;-81
2023/01/22 00:45:54;;;;;;;0.10;0.10;;;0.90;99.90;;;;;;5058981;28;20181;-81
2023/01/22 00:48:20;;;;;;;0.10;0.10;;;1.10;99.90;;;;;;5059217;28;20218;-79
2023/01/22 00:50:45;;;;;;;0.10;0.10;;;1.10;99.90;;;;;;5057750;28;20187;-81
2023/01/22 00:53:11;;;;;;;0.10;0.10;;;1.10;99.90;;;;;;5061067;28;20185;-79
2023/01/22 00:55:36;;;;;;;0.10;0.10;;;1.10;99.90;;;;;;5062352;28;20726;-81
2023/01/22 00:58:02;;;;;;;0.07;0.07;;;1.10;99.90;;;;;;5062176;28;20214;-80
2023/01/22 01:00:28;;;;;;;0.10;0.10;;;1.10;99.90;;;;;;5062452;28;20291;-81
2023/01/22 01:05:37;;;;;;;0.10;0.10;;;1.10;99.90;;;;;;5062434;28;20204;-81
2023/01/22 01:08:03;;;;;;;0.10;0.10;;;1.20;99.90;;;;;;5062649;28;20670;-82
2023/01/22 01:10:29;;;;;;;0.10;0.10;;;1.20;99.90;;;;;;5063774;28;20792;-80
2023/01/22 01:12:54;;;;;;;0.10;0.10;;;1.20;99.90;;;;;;5061738;28;20208;-81
2023/01/22 01:15:20;;;;;;;0.00;0.00;;;1.30;99.90;;;;;;5061014;28;20180;-80
2023/01/22 01:17:45;;;;;;;0.10;0.10;;;1.30;99.90;;;;;;5062051;28;20688;-81
2023/01/22 01:20:11;;;;;;;0.10;0.10;;;1.30;99.90;;;;;;5061750;28;20662;-80
2023/01/22 01:22:37;;;;;;;0.10;0.10;;;1.20;99.90;;;;;;5061063;28;20202;-81
2023/01/22 01:25:03;;;;;;;0.10;0.10;;;1.30;99.90;;;;;;5061743;28;20177;-81
2023/01/22 01:27:30;;;;;;;0.10;0.10;;;1.30;99.90;;;;;;5061376;28;20289;-80
2023/01/22 01:29:56;;;;;;;0.10;0.10;;;1.30;99.90;;;;;;5061314;28;20197;-81
2023/01/22 01:32:22;;;;;;;0.10;0.10;;;1.30;99.90;;;;;;5058064;28;20210;-81
2023/01/22 01:34:48;;;;;;;0.10;0.10;;;1.30;99.90;;;;;;5061170;28;20196;-80
2023/01/22 01:37:15;;;;;;;0.00;0.00;;;1.40;99.90;;;;;;5057231;28;20206;-81
2023/01/22 01:39:40;;;;;;;0.10;0.10;;;1.40;99.90;;;;;;5059404;28;20668;-82
2023/01/22 01:42:06;;;;;;;0.07;0.07;;;1.30;99.90;;;;;;5060039;28;20191;-81
2023/01/22 01:44:31;;;;;;;0.10;0.10;;;1.40;99.90;;;;;;5058120;28;20961;-81
2023/01/22 01:47:04;;;;;;;0.10;0.10;;;1.30;99.90;;;;;;5057784;28;20187;-81
2023/01/22 01:49:51;;;;;;;0.10;0.10;;;1.30;99.90;;;;;;5060805;28;20173;-81
2023/01/22 01:52:18;;;;;;;0.10;0.10;;;1.30;99.90;;;;;;5058697;28;20313;-81
2023/01/22 01:54:49;;;;;;;0.10;0.10;;;1.40;99.90;;;;;;5058410;28;20181;-81
2023/01/22 01:57:20;;;;;;;0.17;0.17;;;1.30;99.90;;;;;;5061120;28;20258;-81
2023/01/22 01:59:48;;;;;;;0.10;0.10;;;1.40;99.90;;;;;;5061362;28;20194;-81
2023/01/22 02:02:15;;;;;;;0.10;0.10;;;1.40;99.90;;;;;;5059892;28;20252;-80
2023/01/22 02:04:41;;;;;;;0.10;0.10;;;1.40;99.90;;;;;;5061007;28;20193;-82
2023/01/22 02:07:06;;;;;;;0.10;0.10;;;1.40;99.90;;;;;;5061553;28;20194;-81
2023/01/22 02:09:32;;;;;;;0.10;0.10;;;1.40;99.90;;;;;;5059825;28;20290;-80
2023/01/22 02:11:58;;;;;;;0.47;0.47;;;1.40;99.90;;;;;;5062108;28;20662;-81
2023/01/22 02:14:29;;;;;;;0.10;0.10;;;1.40;99.90;;;;;;5061968;28;20750;-81
2023/01/22 02:16:59;;;;;;;0.10;0.10;;;1.40;99.90;;;;;;5059880;28;20220;-80
2023/01/22 02:19:25;;;;;;;0.00;0.00;;;1.40;99.90;;;;;;5069097;28;20246;-82
2023/01/22 02:21:51;;;;;;;0.00;0.00;;;1.40;99.90;;;;;;5061297;28;20585;-81
2023/01/22 02:24:16;;;;;;;0.10;0.10;;;1.40;99.90;;;;;;5061037;28;20198;-81
2023/01/22 02:26:44;;;;;;;0.10;0.10;;;1.40;99.90;;;;;;5059761;28;20194;-81
2023/01/22 02:29:12;;;;;;;0.10;0.10;;;1.40;99.90;;;;;;5075444;28;20213;-81
2023/01/22 02:31:39;;;;;;;0.10;0.10;;;1.40;99.90;;;;;;5058139;28;20263;-81
2023/01/22 02:34:07;;;;;;;0.60;0.60;;;1.40;99.90;;;;;;5058710;28;20188;-82
2023/01/22 02:36:35;;;;;;;0.10;0.10;;;1.40;99.90;;;;;;5056815;28;20640;-81
2023/01/22 02:39:00;;;;;;;0.10;0.10;;;1.40;99.90;;;;;;5058317;28;20201;-81
2023/01/22 02:41:26;;;;;;;0.10;0.10;;;1.40;99.90;;;;;;5059010;28;20290;-81
2023/01/22 02:43:52;;;;;;;5.03;4.73;;;1.50;99.90;;;;;;5058861;28;20219;-81
2023/01/22 02:46:18;;;;;;;0.10;0.10;;;1.50;99.90;;;;;;5058253;28;20352;-80
2023/01/22 02:48:43;;;;;;;0.10;0.10;;;1.50;99.90;;;;;;5056622;28;20292;-81
2023/01/22 02:51:09;;;;;;;0.10;0.10;;;1.50;99.90;;;;;;5058464;28;20764;-81
2023/01/22 02:53:35;;;;;;;0.10;0.10;;;1.50;99.90;;;;;;5058458;28;20239;-81
2023/01/22 02:56:09;;;;;;;0.10;0.10;;;1.50;99.90;;;;;;5059128;28;20216;-80
2023/01/22 02:58:35;;;;;;;0.10;0.10;;;1.60;99.90;;;;;;5061192;28;20214;-82
2023/01/22 03:01:20;;;;;;;0.10;0.10;;;1.50;99.90;;;;;;5062174;28;20279;-81
2023/01/22 03:03:46;;;;;;;0.10;0.10;;;1.50;99.90;;;;;;5063248;28;20940;-80
2023/01/22 03:06:14;;;;;;;0.10;0.10;;;1.50;99.90;;;;;;5062170;28;20703;-81
2023/01/22 03:08:43;;;;;;;0.10;0.10;;;1.50;99.90;;;;;;5064266;28;20205;-81
2023/01/22 03:11:10;;;;;;;0.10;0.10;;;1.50;99.90;;;;;;5072642;28;20813;-81
2023/01/22 03:21:48;;;;;;;0.10;0.10;;;1.50;99.90;;;;;;5063411;28;20196;-82
2023/01/22 03:24:13;;;;;;;0.10;0.10;;;1.50;99.90;;;;;;5062787;28;20185;-79
2023/01/22 03:26:39;;;;;;;0.10;0.10;;;1.50;99.90;;;;;;5060669;28;20194;-79
2023/01/22 03:29:04;;;;;;;0.53;0.53;;;1.40;99.90;;;;;;5062044;28;20305;-79
2023/01/22 03:31:30;;;;;;;0.10;0.10;;;1.50;99.90;;;;;;5061179;28;20240;-79
2023/01/22 03:33:56;;;;;;;0.10;0.10;;;1.50;99.90;;;;;;5061244;28;20560;-80
2023/01/22 03:36:22;;;;;;;0.10;0.10;;;1.50;99.90;;;;;;5060695;28;20679;-79
2023/01/22 03:38:47;;;;;;;0.10;0.10;;;1.40;99.90;;;;;;5060401;28;20236;-79
2023/01/22 03:41:14;;;;;;;0.10;0.10;;;1.50;99.90;;;;;;5060652;28;20193;-79
2023/01/22 03:43:40;;;;;;;0.10;0.10;;;1.50;99.90;;;;;;5058540;28;20275;-80
2023/01/22 03:46:12;;;;;;;0.10;0.10;;;1.50;99.90;;;;;;5061945;28;21079;-78
2023/01/22 03:48:38;;;;;;;0.00;0.00;;;1.50;99.90;;;;;;5060476;28;20216;-79
2023/01/22 03:51:05;;;;;;;0.10;0.10;;;1.50;99.90;;;;;;5061825;28;20285;-79
2023/01/22 03:53:30;;;;;;;0.87;0.87;;;1.50;99.90;;;;;;5061286;28;20690;-79
2023/01/22 03:55:57;;;;;;;0.10;0.10;;;1.50;99.90;;;;;;5063068;28;20506;-79
2023/01/22 03:58:23;;;;;;;0.10;0.10;;;1.50;99.90;;;;;;5063549;28;20685;-80
2023/01/22 04:00:49;;;;;;;0.10;0.10;;;1.40;99.90;;;;;;5061438;28;20182;-78
2023/01/22 04:03:14;;;;;;;0.00;0.00;;;1.50;99.90;;;;;;5063876;28;20568;-80
2023/01/22 04:05:40;;;;;;;0.10;0.10;;;1.50;99.90;;;;;;5064019;28;20191;-79
2023/01/22 04:08:06;;;;;;;0.10;0.10;;;1.50;99.90;;;;;;5062989;28;20707;-79
2023/01/22 04:10:31;;;;;;;0.10;0.10;;;1.50;99.90;;;;;;5062272;28;20185;-78
2023/01/22 04:12:57;;;;;;;0.00;0.00;;;1.60;99.90;;;;;;5062952;28;20239;-79
2023/01/22 04:15:22;;;;;;;0.10;0.10;;;1.60;99.90;;;;;;5062289;28;20638;-79
2023/01/22 04:17:47;;;;;;;0.10;0.10;;;1.50;99.90;;;;;;5062381;28;20251;-79
2023/01/22 04:20:13;;;;;;;0.10;0.10;;;1.50;99.90;;;;;;5061407;28;20216;-80
2023/01/22 04:22:38;;;;;;;0.10;0.10;;;1.50;99.90;;;;;;5061479;28;20179;-79
2023/01/22 04:25:05;;;;;;;0.10;0.10;;;1.50;99.90;;;;;;5061533;28;20278;-79
2023/01/22 04:27:30;;;;;;;0.00;0.00;;;1.50;99.90;;;;;;5059614;28;20621;-79
2023/01/22 04:29:56;;;;;;;0.10;0.10;;;1.60;99.90;;;;;;5061308;28;20190;-78
2023/01/22 04:32:21;;;;;;;0.10;0.10;;;1.50;99.90;;;;;;5060941;28;20214;-78
2023/01/22 04:34:47;;;;;;;0.10;0.10;;;1.60;99.90;;;;;;5059390;28;20235;-79
2023/01/22 04:37:12;;;;;;;0.10;0.10;;;1.50;99.90;;;;;;5058122;28;20201;-79
2023/01/22 04:39:38;;;;;;;0.00;0.00;;;1.50;99.90;;;;;;5052476;28;20189;-80
2023/01/22 04:42:03;;;;;;;0.10;0.10;;;1.50;99.90;;;;;;5060659;28;20189;-79
2023/01/22 04:44:29;;;;;;;0.10;0.10;;;1.50;99.90;;;;;;5060639;28;20196;-79
2023/01/22 04:46:54;;;;;;;0.10;0.10;;;1.60;99.90;;;;;;5060353;28;20246;-80
2023/01/22 04:49:20;;;;;;;0.10;0.10;;;1.60;99.90;;;;;;5059925;28;20194;-77
2023/01/22 04:51:46;;;;;;;0.10;0.10;;;1.60;99.90;;;;;;5059636;28;20300;-79
2023/01/22 04:54:11;;;;;;;0.10;0.10;;;1.50;99.90;;;;;;5059879;28;20187;-80
2023/01/22 04:56:36;;;;;;;0.10;0.10;;;1.50;99.90;;;;;;5056331;28;20565;-80
2023/01/22 04:59:02;;;;;;;0.10;0.10;;;1.50;99.90;;;;;;5058205;28;20256;-80
2023/01/22 05:01:27;;;;;;;0.00;0.00;;;1.60;99.90;;;;;;5059922;28;20189;-79
2023/01/22 05:03:53;;;;;;;0.10;0.10;;;1.60;99.90;;;;;;5055807;28;20203;-80
2023/01/22 05:06:18;;;;;;;0.10;0.10;;;1.50;99.90;;;;;;5059173;28;20651;-79
2023/01/22 05:08:44;;;;;;;0.10;0.10;;;1.50;99.90;;;;;;5058001;28;20201;-79
2023/01/22 05:11:09;;;;;;;0.10;0.10;;;1.50;99.90;;;;;;5060622;28;20244;-79
2023/01/22 05:13:35;;;;;;;0.10;0.10;;;1.60;99.90;;;;;;5056331;28;20182;-79
2023/01/22 05:16:00;;;;;;;0.10;0.10;;;1.60;99.90;;;;;;5059079;28;21275;-78
2023/01/22 05:18:26;;;;;;;0.10;0.10;;;1.60;99.90;;;;;;5059860;28;20285;-80
2023/01/22 05:20:51;;;;;;;0.10;0.10;;;1.60;99.90;;;;;;5059462;28;20305;-79
2023/01/22 05:23:17;;;;;;;0.10;0.10;;;1.60;99.90;;;;;;5058387;28;20247;-80
2023/01/22 05:25:49;;;;;;;0.00;0.00;;;1.50;99.90;;;;;;5059875;28;20286;-80
2023/01/22 05:28:15;;;;;;;0.10;0.10;;;1.60;99.90;;;;;;5058680;28;20197;-80
2023/01/22 05:30:40;;;;;;;0.10;0.10;;;1.60;99.90;;;;;;5059286;28;20212;-80
2023/01/22 05:33:06;;;;;;;0.10;0.10;;;1.60;99.90;;;;;;5059616;28;20220;-79
2023/01/22 05:35:31;;;;;;;0.10;0.10;;;1.60;99.90;;;;;;5057660;28;20213;-79
2023/01/22 05:37:56;;;;;;;0.10;0.10;;;1.50;99.90;;;;;;5059471;28;20214;-79
2023/01/22 05:40:22;;;;;;;0.10;0.10;;;1.60;99.90;;;;;;5058797;28;20200;-80
2023/01/22 05:42:48;;;;;;;0.00;0.00;;;1.60;99.90;;;;;;5058244;28;20781;-78
2023/01/22 05:45:13;;;;;;;0.10;0.10;;;1.60;99.90;;;;;;5060069;28;20220;-79
2023/01/22 05:47:39;;;;;;;0.10;0.10;;;1.60;99.90;;;;;;5059744;28;20280;-79
2023/01/22 05:50:04;;;;;;;0.00;0.00;;;1.60;99.90;;;;;;5056748;28;20190;-80
2023/01/22 05:52:30;;;;;;;0.00;0.00;;;1.60;99.90;;;;;;5059820;28;20212;-79
2023/01/22 05:54:58;;;;;;;0.10;0.10;;;1.60;99.90;;;;;;5059376;28;20187;-79
2023/01/22 05:57:24;;;;;;;0.10;0.10;;;1.60;99.90;;;;;;5061587;28;20199;-80
2023/01/22 05:59:50;;;;;;;0.10;0.10;;;1.60;99.90;;;;;;5057217;28;20335;-79
2023/01/22 06:02:15;;;;;;;0.10;0.10;;;1.70;99.90;;;;;;5060962;28;20611;-79
2023/01/22 06:04:41;;;;;;;0.10;0.10;;;1.60;99.90;;;;;;5057652;28;20187;-80
2023/01/22 06:07:06;;;;;;;0.10;0.10;;;1.70;99.90;;;;;;5061890;28;20543;-80
2023/01/22 06:09:32;;;;;;;0.10;0.10;;;1.60;99.90;;;;;;5058389;28;20272;-80
2023/01/22 06:11:57;;;;;;;0.10;0.10;;;1.60;99.90;;;;;;5060673;28;20220;-80
2023/01/22 06:14:23;;;;;;;0.10;0.10;;;1.70;99.90;;;;;;5057674;28;20186;-80
2023/01/22 06:16:48;;;;;;;0.10;0.10;;;1.70;99.90;;;;;;5060655;28;20180;-80
2023/01/22 06:19:14;;;;;;;0.07;0.07;;;1.70;99.90;;;;;;5059843;28;20238;-80
2023/01/22 06:21:42;;;;;;;0.10;0.10;;;1.70;99.90;;;;;;5060431;28;20191;-81
2023/01/22 06:24:08;;;;;;;0.10;0.10;;;1.70;99.90;;;;;;5058995;28;20560;-79
2023/01/22 06:26:33;;;;;;;0.10;0.10;;;1.70;99.90;;;;;;5059221;28;20189;-79
2023/01/22 06:28:58;;;;;;;0.00;0.00;;;1.80;99.90;;;;;;5058215;28;20209;-78
2023/01/22 06:31:24;;;;;;;0.10;0.10;;;1.80;99.90;;;;;;5057764;28;20211;-78
2023/01/22 06:33:51;;;;;;;0.10;0.10;;;1.70;99.90;;;;;;5060599;28;20556;-80
2023/01/22 06:36:17;;;;;;;0.10;0.10;;;1.70;99.90;;;;;;5062162;28;20190;-78
2023/01/22 06:38:42;;;;;;;0.10;0.10;;;1.70;99.90;;;;;;5059785;28;20236;-78
2023/01/22 06:41:08;;;;;;;0.10;0.10;;;1.70;99.90;;;;;;5061260;28;20194;-79
2023/01/22 06:43:36;;;;;;;0.10;0.10;;;1.70;99.90;;;;;;5060856;28;20243;-79
2023/01/22 06:46:02;;;;;;;0.10;0.10;;;1.70;99.90;;;;;;5064181;28;20232;-79
2023/01/22 06:48:27;;;;;;;0.10;0.10;;;1.70;99.90;;;;;;5062591;28;20208;-79
2023/01/22 06:50:57;;;;;;;0.10;0.10;;;1.60;99.90;;;;;;5060427;28;20215;-79
2023/01/22 06:53:22;;;;;;;0.10;0.10;;;1.70;99.90;;;;;;5063587;28;20185;-80
2023/01/22 06:55:48;;;;;;;0.10;0.10;;;1.70;99.90;;;;;;5061166;28;20183;-80
2023/01/22 06:58:13;;;;;;;0.10;0.10;;;1.80;99.90;;;;;;5060331;28;20689;-78
2023/01/22 07:00:39;;;;;;;0.10;0.10;;;1.70;99.90;;;;;;5062737;28;20182;-83
2023/01/22 07:03:06;;;;;;;0.10;0.10;;;1.70;99.90;;;;;;5061938;28;20223;-81
2023/01/22 07:05:33;;;;;;;0.03;0.03;;;1.60;99.90;;;;;;5063766;28;20929;-82
2023/01/22 07:07:58;;;;;;;0.10;0.10;;;1.60;99.90;;;;;;5058958;28;20239;-84
2023/01/22 07:10:24;;;;;;;0.00;0.00;;;1.60;99.90;;;;;;5063989;28;20224;-81
2023/01/22 07:12:54;;;;;;;0.10;0.10;;;1.70;99.90;;;;;;5060723;28;20268;-82
2023/01/22 07:15:20;;;;;;;0.10;0.10;;;1.70;99.90;;;;;;5063105;28;20737;-81
2023/01/22 07:17:50;;;;;;;0.10;0.10;;;1.70;99.90;;;;;;5061451;28;20333;-81
2023/01/22 07:20:17;;;;;;;0.20;0.20;;;1.70;99.90;;;;;;5061717;28;20193;-80
2023/01/22 07:22:42;;;;;;;0.10;0.10;;;1.70;99.90;;;;;;5059767;28;20213;-81
2023/01/22 07:25:08;;;;;;;0.10;0.10;;;1.70;99.90;;;;;;5061356;28;20970;-80
2023/01/22 07:27:33;;;;;;;0.10;0.10;;;1.80;99.90;;;;;;5061545;28;20215;-79
2023/01/22 07:29:59;;;;;;;0.10;0.10;;;1.80;99.90;;;;;;5057612;28;20201;-80
2023/01/22 07:32:26;;;;;;;0.10;0.10;;;1.80;99.90;;;;;;5061869;28;20579;-79
2023/01/22 07:34:52;;;;;;;0.10;0.10;;;1.80;99.90;;;;;;5063057;28;20286;-79
2023/01/22 07:37:17;;;;;;;0.10;0.10;;;1.80;99.90;;;;;;5061282;28;20296;-80
2023/01/22 07:39:43;;;;;;;0.10;0.10;;;1.80;99.90;;;;;;5063638;28;20227;-79
2023/01/22 07:42:08;;;;;;;0.03;0.03;;;1.80;99.90;;;;;;5060201;28;20546;-79
2023/01/22 07:44:35;;;;;;;0.10;0.10;;;1.80;99.90;;;;;;5055521;28;20214;-80
2023/01/22 07:47:01;;;;;;;0.10;0.10;;;1.90;99.90;;;;;;5058258;28;20200;-79
2023/01/22 07:49:27;;;;;;;0.10;0.10;;;1.80;99.90;;;;;;5060646;28;20190;-80
2023/01/22 07:51:52;;;;;;;0.00;0.00;;;1.80;99.90;;;;;;5062415;28;20290;-79
2023/01/22 07:54:19;;;;;;;0.10;0.10;;;1.90;99.90;;;;;;5061536;28;20217;-79
2023/01/22 07:56:45;;;;;;;0.10;0.10;;;1.90;99.90;;;;;;5062781;28;20195;-80
2023/01/22 07:59:10;;;;;;;0.10;0.10;;;1.90;99.90;;;;;;5061606;28;20278;-79
2023/01/22 08:01:36;;;;;;;0.10;0.10;;;1.90;99.90;;;;;;5059279;28;20189;-80
2023/01/22 08:04:03;;;;;;;0.10;0.10;;;2.00;99.90;;;;;;5063709;28;20726;-80
2023/01/22 08:06:28;;;;;;;0.20;0.20;;;2.00;99.90;;;;;;5060050;28;20660;-79
2023/01/22 08:08:54;;;;;;;0.10;0.10;;;1.90;99.90;;;;;;5062551;28;20210;-80
2023/01/22 08:11:19;;;;;;;0.10;0.10;;;2.00;99.90;;;;;;5061852;28;20220;-80
2023/01/22 08:13:45;;;;;;;0.10;0.10;;;2.10;99.90;;;;;;5064391;28;20869;-80
2023/01/22 08:16:10;;;;;;;0.00;0.00;;;2.10;99.90;;;;;;5059233;28;20174;-78
2023/01/22 08:18:36;;;;;;;0.10;0.10;;;2.10;99.90;;;;;;5060350;28;20253;-79
2023/01/22 08:21:02;;;;;;;0.10;0.10;;;2.00;99.90;;;;;;5059207;28;20182;-82
2023/01/22 08:23:28;;;;;;;0.10;0.10;;;2.00;99.90;;;;;;5057000;28;20330;-84
2023/01/22 08:26:02;;;;;;;0.10;0.10;;;2.10;99.90;;;;;;5061055;28;20178;-83
2023/01/22 08:28:30;;;;;;;0.03;0.03;;;2.00;99.90;;;;;;5059193;28;20202;-83
2023/01/22 08:30:57;;;;;;;0.10;0.10;;;2.10;99.90;;;;;;5061196;28;20193;-84
2023/01/22 08:33:23;;;;;;;0.00;0.00;;;2.00;99.90;;;;;;5059767;28;20533;-83
2023/01/22 08:35:49;;;;;;;0.10;0.10;;;2.00;99.90;;;;;;5053885;28;20233;-81
2023/01/22 08:38:14;;;;;;;0.10;0.10;;;2.10;99.90;;;;;;5058549;28;20769;-82
2023/01/22 08:40:40;;;;;;;0.10;0.10;;;2.10;99.90;;;;;;5060673;28;20183;-78
2023/01/22 08:43:05;;;;;;;0.10;0.10;;;2.10;99.90;;;;;;5057440;28;20182;-79
2023/01/22 08:45:31;;;;;;;0.10;0.10;;;2.10;99.90;;;;;;5059910;28;20182;-79
2023/01/22 08:47:58;;;;;;;0.10;0.10;;;2.10;99.90;;;;;;5057752;28;20693;-78
2023/01/22 08:50:24;;;;;;;0.10;0.10;;;2.20;99.90;;;;;;5059099;28;20183;-80
2023/01/22 08:52:50;;;;;;;0.10;0.10;;;2.10;99.90;;;;;;5056954;28;20968;-78
2023/01/22 08:55:15;;;;;;;0.10;0.10;;;2.30;99.90;;;;;;5057383;28;20585;-81
2023/01/22 08:57:41;;;;;;;0.03;0.03;;;2.20;99.90;;;;;;5059329;28;20228;-81
2023/01/22 09:00:07;;;;;;;0.10;0.10;;;2.20;99.90;;;;;;5058814;28;20203;-81
2023/01/22 09:02:33;;;;;;;0.00;0.00;;;2.20;99.90;;;;;;5060966;28;20689;-81
2023/01/22 09:04:58;;;;;;;0.07;0.07;;;2.20;99.90;;;;;;5058686;28;20187;-78
2023/01/22 09:07:24;;;;;;;0.10;0.10;;;2.20;99.90;;;;;;5059022;28;20212;-81
2023/01/22 09:09:49;;;;;;;0.10;0.10;;;2.20;99.90;;;;;;5058034;28;20196;-80
2023/01/22 09:12:15;;;;;;;0.10;0.10;;;2.20;99.90;;;;;;5058476;28;20203;-80
2023/01/22 09:14:40;;;;;;;0.10;0.10;;;2.20;99.90;;;;;;5055871;28;20177;-80
2023/01/22 09:17:06;;;;;;;0.10;0.10;;;2.30;99.90;;;;;;5059352;28;20278;-78
2023/01/22 09:19:32;;;;;;;0.10;0.10;;;2.30;99.90;;;;;;5060076;28;20181;-80
2023/01/22 09:21:57;;;;;;;0.10;0.10;;;2.30;99.90;;;;;;5057395;28;20201;-80
2023/01/22 09:24:23;;;;;;;0.10;0.10;;;2.30;99.90;;;;;;5057252;28;20196;-79
2023/01/22 09:26:48;;;;;;;0.10;0.10;;;2.30;99.90;;;;;;5055883;28;20200;-81
2023/01/22 09:29:14;;;;;;;0.10;0.10;;;2.40;99.90;;;;;;5055461;28;20224;-81
2023/01/22 09:31:39;;;;;;;0.10;0.10;;;2.40;99.90;;;;;;5054565;28;20205;-79
2023/01/22 09:34:05;;;;;;;0.10;0.10;;;2.50;99.90;;;;;;5058245;28;20208;-80
2023/01/22 09:36:31;;;;;;;0.10;0.10;;;2.30;99.90;;;;;;5055663;28;20191;-81
2023/01/22 09:38:56;;;;;;;0.63;0.63;;;2.50;99.90;;;;;;5056123;28;20268;-79
2023/01/22 09:41:30;;;;;;;0.10;0.10;;;2.50;99.90;;;;;;5057516;28;20232;-79
2023/01/22 09:44:09;;;;;;;0.10;0.10;;;2.50;99.90;;;;;;5057240;28;20193;-80
2023/01/22 09:46:48;;;;;;;0.10;0.10;;;2.60;99.90;;;;;;5059799;28;20241;-79
2023/01/22 09:49:30;;;;;;;0.10;0.10;;;2.60;99.90;;;;;;5059597;28;21043;-79
2023/01/22 09:51:58;;;;;;;0.10;0.10;;;2.70;99.90;;;;;;5057623;28;20212;-81
2023/01/22 09:54:24;;;;;;;0.10;0.10;;;2.80;99.90;;;;;;5060929;28;20191;-81
2023/01/22 09:56:55;;;;;;;0.00;0.00;;;2.80;99.90;;;;;;5059524;28;20206;-80
2023/01/22 09:59:25;;;;;;;1.03;0.67;;;2.80;99.90;;;;;;5059478;28;20234;-80
2023/01/22 10:01:58;;;;;;;0.10;0.10;;;2.90;99.90;;;;;;5056318;28;20238;-80
2023/01/22 10:04:35;;;;;;;0.00;0.00;;;2.80;99.90;;;;;;5060161;28;20191;-81
2023/01/22 10:07:04;;;;;;;0.03;0.03;;;2.80;99.90;;;;;;5058487;28;20196;-81
2023/01/22 10:09:31;;;;;;;0.10;0.10;;;2.90;99.90;;;;;;5059225;28;20223;-81
2023/01/22 10:12:00;;;;;;;0.00;0.00;;;2.90;99.90;;;;;;5056263;28;20640;-82
2023/01/22 10:14:28;;;;;;;0.10;0.10;;;2.90;99.90;;;;;;5065396;28;20201;-82
2023/01/22 10:16:59;;;;;;;0.10;0.10;;;2.80;99.90;;;;;;5070486;28;20190;-81
2023/01/22 10:19:31;;;;;;;0.10;0.10;;;2.80;99.90;;;;;;5056213;28;20194;-82
2023/01/22 10:22:03;;;;;;;0.10;0.10;;;2.80;99.90;;;;;;5055372;28;20210;-81
2023/01/22 10:24:29;;;;;;;0.10;0.10;;;3.00;99.90;;;;;;5055875;28;20250;-81
2023/01/22 10:26:57;;;;;;;0.10;0.10;;;2.90;99.90;;;;;;5058691;28;20184;-81
2023/01/22 10:29:33;;;;;;;0.10;0.10;;;2.90;99.90;;;;;;5058506;28;20194;-80
2023/01/22 10:32:19;;;;;;;0.10;0.10;;;2.90;99.90;;;;;;5061003;28;20221;-81
2023/01/22 10:35:00;;;;;;;0.10;0.10;;;2.90;99.90;;;;;;5053030;28;20184;-81
2023/01/22 10:37:26;;;;;;;0.10;0.10;;;2.90;99.90;;;;;;5056762;28;20210;-81
2023/01/22 10:39:56;;;;;;;0.10;0.10;;;2.80;99.90;;;;;;5061056;28;20201;-82
2023/01/22 10:42:24;;;;;;;0.10;0.10;;;2.80;99.90;;;;;;5057035;28;20289;-80
2023/01/22 10:44:55;;;;;;;0.10;0.10;;;2.80;99.90;;;;;;5055356;28;20201;-82
2023/01/22 10:47:26;;;;;;;0.10;0.10;;;2.90;99.90;;;;;;5060386;28;20215;-82
2023/01/22 10:50:03;;;;;;;0.00;0.00;;;3.10;99.90;;;;;;5059643;28;20623;-81
2023/01/22 10:52:37;;;;;;;0.10;0.10;;;2.90;99.90;;;;;;5062812;28;20280;-81
2023/01/22 10:55:03;;;;;;;0.10;0.10;;;2.90;99.90;;;;;;5061245;28;20188;-82
2023/01/22 10:57:33;;;;;;;0.10;0.10;;;2.90;99.90;;;;;;5059666;28;20211;-83
2023/01/22 11:00:14;;;;;;;0.10;0.10;;;2.90;99.90;;;;;;5062221;28;20206;-83
2023/01/22 11:02:42;;;;;;;0.10;0.10;;;3.00;99.90;;;;;;5059568;28;20198;-82
2023/01/22 11:05:26;;;;;;;0.10;0.10;;;3.00;99.90;;;;;;5059958;28;20261;-82
2023/01/22 11:08:04;;;;;;;0.10;0.10;;;3.00;99.90;;;;;;5055926;28;20206;-82
2023/01/22 11:10:47;;;;;;;0.10;0.10;;;3.30;99.90;;;;;;5059207;28;20184;-81
2023/01/22 11:13:33;;;;;;;0.10;0.10;;;3.20;99.90;;;;;;5056263;28;20225;-81
2023/01/22 11:16:11;;;;;;;0.10;0.10;;;3.00;99.90;;;;;;5055497;28;20237;-81
2023/01/22 11:19:14;;;;;;;0.10;0.10;;;3.20;99.90;;;;;;5057489;28;20227;-83
2023/01/22 11:21:51;;;;;;;0.10;0.10;;;3.20;99.90;;;;;;5062400;28;20831;-81
2023/01/22 11:24:28;;;;;;;5.17;4.93;;;3.00;99.90;;;;;;5062745;28;20191;-80
2023/01/22 11:27:01;;;;;;;0.10;0.10;;;3.00;99.90;;;;;;5061014;28;20266;-81
2023/01/22 11:29:26;;;;;;;0.10;0.10;;;3.00;99.90;;;;;;5061036;28;20234;-81
2023/01/22 11:32:21;;;;;;;0.10;0.10;;;3.00;99.90;;;;;;5061416;28;20334;-82
2023/01/22 11:35:05;;;;;;;0.10;0.10;;;2.90;99.90;;;;;;5060056;28;22214;-83
2023/01/22 11:37:52;;;;;;;0.10;0.10;;;2.80;99.90;;;;;;5061312;28;20206;-81
2023/01/22 11:40:22;;;;;;;0.10;0.10;;;2.90;99.90;;;;;;5061192;28;20853;-82
2023/01/22 11:42:57;;;;;;;0.10;0.10;;;3.00;99.90;;;;;;5059966;28;20621;-81
2023/01/22 11:45:31;;;;;;;0.10;0.10;;;3.10;99.90;;;;;;5062967;28;20306;-82
2023/01/22 11:48:20;;;;;;;0.10;0.10;;;3.00;99.90;;;;;;5062779;28;20212;-82
2023/01/22 11:51:22;;;;;;;0.10;0.10;;;2.90;99.90;;;;;;5060201;28;20281;-81
2023/01/22 11:54:05;;;;;;;0.10;0.10;;;2.80;99.90;;;;;;5056771;28;20212;-81
2023/01/22 11:56:38;;;;;;;0.10;0.10;;;2.90;99.90;;;;;;5059808;28;20262;-80
2023/01/22 11:59:12;;;;;;;0.10;0.10;;;2.90;99.90;;;;;;5061141;28;20217;-81
2023/01/22 12:01:46;;;;;;;0.83;0.83;;;3.00;99.90;;;;;;5061318;28;20202;-83
2023/01/22 12:04:17;;;;;;;0.10;0.10;;;3.00;99.90;;;;;;5063276;28;20206;-81
2023/01/22 12:07:04;;;;;;;0.97;0.97;;;3.10;99.90;;;;;;5060980;28;20189;-82
2023/01/22 12:10:00;;;;;;;0.10;0.10;;;3.00;99.90;;;;;;5062606;28;20186;-82
2023/01/22 12:12:54;;;;;;;0.10;0.10;;;3.10;99.90;;;;;;5060149;28;20218;-82
2023/01/22 12:15:26;;;;;;;5.23;5.00;;;3.20;99.90;;;;;;5060995;28;20201;-81
2023/01/22 12:18:31;;;;;;;0.10;0.10;;;3.20;99.90;;;;;;5058772;28;20674;-82
2023/01/22 12:21:26;;;;;;;0.10;0.10;;;3.30;99.90;;;;;;5060279;28;20202;-82
2023/01/22 12:24:03;;;;;;;0.00;0.00;;;3.20;99.90;;;;;;5062563;28;20185;-81
2023/01/22 12:26:47;;;;;;;0.10;0.10;;;3.10;99.90;;;;;;5060915;28;20738;-81
2023/01/22 12:29:18;;;;;;;0.10;0.10;;;3.10;99.90;;;;;;5059808;28;20849;-81
2023/01/22 12:31:44;;;;;;;0.10;0.10;;;3.10;99.90;;;;;;5064069;28;20687;-81
2023/01/22 12:34:29;;;;;;;0.00;0.00;;;3.20;99.90;;;;;;5062331;28;20184;-83
2023/01/22 12:36:56;;;;;;;0.10;0.10;;;3.30;99.90;;;;;;5064791;28;20180;-82
2023/01/22 12:39:26;;;;;;;0.10;0.10;;;3.40;99.90;;;;;;5061531;28;20189;-82
2023/01/22 12:42:07;;;;;;;0.10;0.10;;;3.30;99.90;;;;;;5058829;28;20181;-81
2023/01/22 12:45:03;;;;;;;0.10;0.10;;;3.30;99.90;;;;;;5057892;28;20898;-82
2023/01/22 12:47:53;;;;;;;0.10;0.10;;;3.40;99.90;;;;;;5061514;28;20219;-81
2023/01/22 12:50:23;;;;;;;0.10;0.10;;;3.30;99.90;;;;;;5062558;28;20259;-81
2023/01/22 12:53:20;;;;;;;0.10;0.10;;;3.30;99.90;;;;;;5060808;28;20615;-81
2023/01/22 12:56:01;;;;;;;0.10;0.10;;;3.30;99.90;;;;;;5061690;28;20187;-82
2023/01/22 12:58:29;;;;;;;0.10;0.10;;;3.20;99.90;;;;;;5060639;28;20285;-82
2023/01/22 13:01:22;;;;;;;0.10;0.10;;;3.30;99.90;;;;;;5064362;28;20177;-82
2023/01/22 13:03:59;;;;;;;0.10;0.10;;;3.20;99.90;;;;;;5057785;28;20322;-81
2023/01/22 13:06:34;;;;;;;0.10;0.10;;;3.20;99.90;;;;;;5063344;28;20186;-82
2023/01/22 13:09:00;;;;;;;0.10;0.10;;;3.20;99.90;;;;;;5058718;28;20208;-82
2023/01/22 13:11:32;;;;;;;0.10;0.10;;;3.10;99.90;;;;;;5059712;28;20225;-81
2023/01/22 13:14:07;;;;;;;0.10;0.10;;;3.10;99.90;;;;;;5064072;28;20241;-82
2023/01/22 13:16:36;;;;;;;0.10;0.10;;;3.00;99.90;;;;;;5063027;28;20192;-82
2023/01/22 13:19:18;;;;;;;0.10;0.10;;;3.00;99.90;;;;;;5063038;28;20207;-81